Time;durP1;ratioP1;P1;durP2;ratioP2;P2;SDS_P1;SDS_P2;PMS_P1;PMS_P2;Temp;Humidity;BMP_temperature;BMP_pressure;BME280_temperature;BME280_humidity;BME280_pressure;Samples;Min_cycle;Max_cycle;Signal;HPM_P1;HPM_P2
2023/12/17 00:01:33;;;;;;;0.20;0.20;;;8.00;99.90;;;;;;5011254;28;20633;-81
2023/12/17 00:03:59;;;;;;;0.20;0.20;;;8.00;99.90;;;;;;5001748;28;20276;-81
2023/12/17 00:06:24;;;;;;;0.20;0.20;;;8.00;99.90;;;;;;5007102;28;20206;-80
2023/12/17 00:08:50;;;;;;;0.20;0.20;;;8.10;99.90;;;;;;4995479;28;20192;-79
2023/12/17 00:11:16;;;;;;;0.20;0.20;;;8.10;99.90;;;;;;5000199;28;20191;-79
2023/12/17 00:13:41;;;;;;;0.20;0.20;;;8.00;99.90;;;;;;5026938;28;20189;-82
2023/12/17 00:16:07;;;;;;;0.10;0.10;;;8.10;99.90;;;;;;5023373;28;20239;-81
2023/12/17 00:18:33;;;;;;;0.20;0.20;;;8.10;99.90;;;;;;5013651;28;20203;-81
2023/12/17 00:20:59;;;;;;;0.20;0.20;;;8.10;99.90;;;;;;5046919;28;20429;-81
2023/12/17 00:23:24;;;;;;;0.20;0.20;;;8.10;99.90;;;;;;5032624;28;20219;-81
2023/12/17 00:25:50;;;;;;;0.20;0.20;;;8.10;99.90;;;;;;5022463;28;20188;-81
2023/12/17 00:28:15;;;;;;;0.20;0.20;;;8.10;99.90;;;;;;5036634;28;20210;-81
2023/12/17 00:30:41;;;;;;;0.20;0.20;;;8.10;99.90;;;;;;5046608;28;20187;-82
2023/12/17 00:33:06;;;;;;;0.20;0.20;;;8.10;99.90;;;;;;5034485;28;20211;-81
2023/12/17 00:35:32;;;;;;;0.20;0.20;;;8.20;99.90;;;;;;5038472;28;20201;-81
2023/12/17 00:37:58;;;;;;;0.20;0.20;;;8.20;99.90;;;;;;5031454;28;20219;-81
2023/12/17 00:40:24;;;;;;;0.20;0.20;;;8.10;99.90;;;;;;5038333;28;20184;-81
2023/12/17 00:42:49;;;;;;;0.20;0.20;;;8.20;99.90;;;;;;5047970;28;20482;-78
2023/12/17 00:45:15;;;;;;;0.20;0.20;;;8.20;99.90;;;;;;5040876;28;20186;-79
2023/12/17 00:47:40;;;;;;;0.20;0.20;;;8.20;99.90;;;;;;5031088;28;20540;-79
2023/12/17 00:50:06;;;;;;;0.20;0.20;;;8.20;99.90;;;;;;5034250;28;20218;-79
2023/12/17 00:52:32;;;;;;;0.20;0.20;;;8.20;99.90;;;;;;5033640;28;20188;-81
2023/12/17 00:54:57;;;;;;;0.20;0.20;;;8.20;99.90;;;;;;5048827;28;20482;-79
2023/12/17 00:57:23;;;;;;;0.20;0.20;;;8.20;99.90;;;;;;5031191;28;20288;-81
2023/12/17 00:59:48;;;;;;;0.20;0.20;;;8.20;99.90;;;;;;5035877;28;20262;-81
2023/12/17 01:02:14;;;;;;;0.20;0.20;;;8.20;99.90;;;;;;4997621;28;20198;-79
2023/12/17 01:04:39;;;;;;;0.20;0.20;;;8.20;99.90;;;;;;5031376;28;20639;-81
2023/12/17 01:07:05;;;;;;;0.20;0.20;;;8.20;99.90;;;;;;5031673;28;20195;-81
2023/12/17 01:09:30;;;;;;;0.20;0.20;;;8.20;99.90;;;;;;5036200;28;20194;-80
2023/12/17 01:11:58;;;;;;;0.20;0.20;;;8.20;99.90;;;;;;5031586;28;20207;-80
2023/12/17 01:14:24;;;;;;;0.20;0.20;;;8.20;99.90;;;;;;5046793;28;20210;-81
2023/12/17 01:16:50;;;;;;;0.20;0.20;;;8.20;99.90;;;;;;5046721;28;20544;-82
2023/12/17 01:19:16;;;;;;;0.20;0.20;;;8.20;99.90;;;;;;5026399;28;20471;-81
2023/12/17 01:21:41;;;;;;;0.20;0.20;;;8.30;99.90;;;;;;5007366;28;20450;-81
2023/12/17 01:24:07;;;;;;;0.20;0.20;;;8.30;99.90;;;;;;4978885;28;20633;-81
2023/12/17 01:26:33;;;;;;;0.20;0.20;;;8.30;99.90;;;;;;5009763;28;20192;-82
2023/12/17 01:28:58;;;;;;;0.20;0.20;;;8.30;99.90;;;;;;5009968;28;20184;-81
2023/12/17 01:31:24;;;;;;;0.20;0.20;;;8.30;99.90;;;;;;5010611;28;20189;-81
2023/12/17 01:33:49;;;;;;;0.20;0.20;;;8.30;99.90;;;;;;5010261;28;20180;-81
2023/12/17 01:36:15;;;;;;;0.20;0.20;;;8.30;99.90;;;;;;5010431;28;20212;-78
2023/12/17 01:38:41;;;;;;;0.20;0.20;;;8.30;99.90;;;;;;5009266;28;20188;-79
2023/12/17 01:41:09;;;;;;;0.20;0.20;;;8.40;99.90;;;;;;5010325;28;20191;-79
2023/12/17 01:43:35;;;;;;;0.20;0.20;;;8.30;99.90;;;;;;5010103;28;20613;-79
2023/12/17 01:46:02;;;;;;;0.20;0.20;;;8.40;99.90;;;;;;5007238;28;20466;-78
2023/12/17 01:48:28;;;;;;;0.20;0.20;;;8.40;99.90;;;;;;5010589;28;20185;-81
2023/12/17 01:50:55;;;;;;;0.20;0.20;;;8.40;99.90;;;;;;5010683;28;20951;-79
2023/12/17 01:53:22;;;;;;;0.20;0.20;;;8.40;99.90;;;;;;5008185;28;20498;-80
2023/12/17 01:55:49;;;;;;;0.20;0.20;;;8.40;99.90;;;;;;5005438;28;20424;-80
2023/12/17 01:58:16;;;;;;;0.20;0.20;;;8.40;99.90;;;;;;4989060;28;20533;-79
2023/12/17 02:00:41;;;;;;;0.20;0.20;;;8.40;99.90;;;;;;5009668;28;20462;-81
2023/12/17 02:03:07;;;;;;;0.20;0.20;;;8.40;99.90;;;;;;5010697;28;20415;-80
2023/12/17 02:05:33;;;;;;;0.20;0.20;;;8.40;99.90;;;;;;5009979;28;20227;-78
2023/12/17 02:08:00;;;;;;;0.20;0.20;;;8.40;99.90;;;;;;4984164;28;20191;-80
2023/12/17 02:10:26;;;;;;;0.20;0.20;;;8.40;99.90;;;;;;5004753;28;21045;-80
2023/12/17 02:12:52;;;;;;;0.20;0.20;;;8.50;99.90;;;;;;5003053;28;20487;-80
2023/12/17 02:15:17;;;;;;;0.20;0.20;;;8.40;99.90;;;;;;5009499;28;20427;-78
2023/12/17 02:17:43;;;;;;;0.20;0.20;;;8.40;99.90;;;;;;5010073;28;20216;-81
2023/12/17 02:20:09;;;;;;;0.20;0.20;;;8.40;99.90;;;;;;5001207;28;20223;-80
2023/12/17 02:22:35;;;;;;;0.20;0.20;;;8.40;99.90;;;;;;5010553;28;20192;-81
2023/12/17 02:25:01;;;;;;;0.13;0.13;;;8.50;99.90;;;;;;5010897;28;21021;-78
2023/12/17 02:27:27;;;;;;;0.20;0.20;;;8.40;99.90;;;;;;5008415;28;20494;-79
2023/12/17 02:29:54;;;;;;;0.20;0.20;;;8.50;99.90;;;;;;5014237;28;20548;-80
2023/12/17 02:32:21;;;;;;;0.20;0.20;;;8.50;99.90;;;;;;5028167;28;20540;-79
2023/12/17 02:34:47;;;;;;;0.20;0.20;;;8.50;99.90;;;;;;5011039;28;20793;-81
2023/12/17 02:37:12;;;;;;;0.20;0.20;;;8.50;99.90;;;;;;4992816;28;20483;-79
2023/12/17 02:39:38;;;;;;;;;;;8.50;99.90;;;;;;5008186;28;20621;-79
2023/12/17 02:42:04;;;;;;;0.20;0.20;;;8.50;99.90;;;;;;5017250;28;20409;-78
2023/12/17 02:44:29;;;;;;;0.20;0.20;;;8.50;99.90;;;;;;5014986;28;20180;-79
2023/12/17 02:46:55;;;;;;;0.20;0.20;;;8.50;99.90;;;;;;5020920;28;20238;-79
2023/12/17 02:49:20;;;;;;;0.20;0.20;;;8.50;99.90;;;;;;5020023;28;20270;-79
2023/12/17 02:51:46;;;;;;;0.20;0.20;;;8.50;99.90;;;;;;4995530;28;20192;-78
2023/12/17 02:54:12;;;;;;;0.20;0.20;;;8.50;99.90;;;;;;5012373;28;20245;-78
2023/12/17 02:56:38;;;;;;;0.20;0.20;;;8.50;99.90;;;;;;4996435;28;20324;-79
2023/12/17 02:59:05;;;;;;;0.20;0.20;;;8.50;99.90;;;;;;5013735;28;20184;-78
2023/12/17 03:01:31;;;;;;;0.20;0.20;;;8.60;99.90;;;;;;5014897;28;20327;-79
2023/12/17 03:03:58;;;;;;;0.20;0.20;;;8.60;99.90;;;;;;5013704;28;20431;-79
2023/12/17 03:06:23;;;;;;;0.20;0.20;;;8.50;99.90;;;;;;5021675;28;20292;-79
2023/12/17 03:08:49;;;;;;;0.20;0.20;;;8.50;99.90;;;;;;5013628;28;20521;-78
2023/12/17 03:11:14;;;;;;;0.20;0.20;;;8.50;99.90;;;;;;5011793;28;20220;-79
2023/12/17 03:13:40;;;;;;;0.20;0.20;;;8.60;99.90;;;;;;5013718;28;20219;-79
2023/12/17 03:16:08;;;;;;;0.20;0.20;;;8.50;99.90;;;;;;5013507;28;20198;-79
2023/12/17 03:18:34;;;;;;;0.20;0.20;;;8.60;99.90;;;;;;5012672;28;20283;-79
2023/12/17 03:21:00;;;;;;;0.20;0.20;;;8.50;99.90;;;;;;5036507;28;20525;-79
2023/12/17 03:23:25;;;;;;;0.20;0.20;;;8.50;99.90;;;;;;5040731;28;20221;-79
2023/12/17 03:25:51;;;;;;;0.20;0.20;;;8.50;99.90;;;;;;5038838;28;20178;-79
2023/12/17 03:28:16;;;;;;;;;;;8.50;99.90;;;;;;5041420;28;20344;-78
2023/12/17 03:30:41;;;;;;;;;;;8.50;99.90;;;;;;5020001;28;20047;-79
2023/12/17 03:33:09;;;;;;;0.20;0.20;;;8.50;99.90;;;;;;5026918;28;20369;-79
2023/12/17 03:35:34;;;;;;;0.23;0.23;;;8.50;99.90;;;;;;5052383;28;20205;-79
2023/12/17 03:38:00;;;;;;;0.20;0.20;;;8.50;99.90;;;;;;5037677;28;21033;-79
2023/12/17 03:40:25;;;;;;;0.20;0.20;;;8.50;99.90;;;;;;5033131;28;20274;-80
2023/12/17 03:42:51;;;;;;;0.20;0.20;;;8.60;99.90;;;;;;5040357;28;20182;-79
2023/12/17 03:45:16;;;;;;;0.20;0.20;;;8.60;99.90;;;;;;5048335;28;20259;-79
2023/12/17 03:47:48;;;;;;;0.20;0.20;;;8.50;99.90;;;;;;5008009;28;20183;-79
2023/12/17 03:50:16;;;;;;;0.20;0.20;;;8.50;99.90;;;;;;5028487;28;20192;-79
2023/12/17 03:52:44;;;;;;;0.20;0.20;;;8.60;99.90;;;;;;5031947;28;20442;-79
2023/12/17 03:55:09;;;;;;;0.20;0.20;;;8.50;99.90;;;;;;5034559;28;20433;-79
2023/12/17 03:57:35;;;;;;;0.20;0.20;;;8.50;99.90;;;;;;5039192;28;20480;-79
2023/12/17 04:00:03;;;;;;;0.20;0.20;;;8.50;99.90;;;;;;5000183;28;20271;-80
2023/12/17 04:02:29;;;;;;;0.20;0.20;;;8.60;99.90;;;;;;5051829;28;20222;-79
2023/12/17 04:04:54;;;;;;;0.20;0.20;;;8.60;99.90;;;;;;5036858;28;20945;-81
2023/12/17 04:07:20;;;;;;;0.20;0.20;;;8.60;99.90;;;;;;5022603;28;21020;-81
2023/12/17 04:09:46;;;;;;;0.20;0.20;;;8.60;99.90;;;;;;5047790;28;20202;-81
2023/12/17 04:12:12;;;;;;;0.20;0.20;;;8.60;99.90;;;;;;5036029;28;20221;-81
2023/12/17 04:14:37;;;;;;;0.20;0.20;;;8.60;99.90;;;;;;5031275;28;20901;-79
2023/12/17 04:17:03;;;;;;;0.20;0.20;;;8.60;99.90;;;;;;5045394;28;20217;-78
2023/12/17 04:19:29;;;;;;;0.20;0.20;;;8.60;99.90;;;;;;5035644;28;20239;-81
2023/12/17 04:21:54;;;;;;;0.13;0.13;;;8.60;99.90;;;;;;5029814;28;20202;-78
2023/12/17 04:24:20;;;;;;;0.10;0.10;;;8.50;99.90;;;;;;5027341;28;20271;-77
2023/12/17 04:26:45;;;;;;;0.20;0.20;;;8.50;99.90;;;;;;5033957;28;20204;-78
2023/12/17 04:29:11;;;;;;;0.20;0.20;;;8.50;99.90;;;;;;5038349;28;20162;-78
2023/12/17 04:31:37;;;;;;;0.20;0.20;;;8.60;99.90;;;;;;5028019;28;20189;-81
2023/12/17 04:34:02;;;;;;;0.20;0.20;;;8.60;99.90;;;;;;5014258;28;20188;-81
2023/12/17 04:36:28;;;;;;;0.20;0.20;;;8.60;99.90;;;;;;5014155;28;20187;-80
2023/12/17 04:38:53;;;;;;;0.20;0.20;;;8.60;99.90;;;;;;5023039;28;20195;-80
2023/12/17 04:41:19;;;;;;;0.20;0.20;;;8.50;99.90;;;;;;5031376;28;20183;-78
2023/12/17 04:43:44;;;;;;;0.20;0.20;;;8.50;99.90;;;;;;5040327;28;20184;-80
2023/12/17 04:46:11;;;;;;;0.20;0.20;;;8.50;99.90;;;;;;5026364;28;20195;-77
2023/12/17 04:48:37;;;;;;;0.20;0.20;;;8.60;99.90;;;;;;5019629;28;20192;-80
2023/12/17 04:51:02;;;;;;;0.20;0.20;;;8.50;99.90;;;;;;5029219;28;20450;-80
2023/12/17 04:53:28;;;;;;;0.20;0.20;;;8.60;99.90;;;;;;5034009;28;20417;-80
2023/12/17 04:55:53;;;;;;;0.20;0.20;;;8.60;99.90;;;;;;5026731;28;20184;-80
2023/12/17 04:58:19;;;;;;;0.20;0.20;;;8.60;99.90;;;;;;5028707;28;20225;-78
2023/12/17 05:00:44;;;;;;;0.20;0.20;;;8.60;99.90;;;;;;5039541;28;20185;-80
2023/12/17 05:03:10;;;;;;;0.20;0.20;;;8.60;99.90;;;;;;5026840;28;20682;-80
2023/12/17 05:05:36;;;;;;;0.20;0.20;;;8.60;99.90;;;;;;5017672;28;20644;-80
2023/12/17 05:08:01;;;;;;;0.20;0.20;;;8.60;99.90;;;;;;5022504;28;20229;-80
2023/12/17 05:10:27;;;;;;;0.20;0.20;;;8.60;99.90;;;;;;5014588;28;20230;-80
2023/12/17 05:12:55;;;;;;;0.20;0.20;;;8.60;99.90;;;;;;5015636;28;20570;-80
2023/12/17 05:15:22;;;;;;;0.20;0.20;;;8.60;99.90;;;;;;5021639;28;20524;-80
2023/12/17 05:17:47;;;;;;;0.20;0.20;;;8.60;99.90;;;;;;5037147;28;20534;-80
2023/12/17 05:20:13;;;;;;;0.20;0.20;;;8.60;99.90;;;;;;5033379;28;20870;-77
2023/12/17 05:22:38;;;;;;;0.20;0.20;;;8.60;99.90;;;;;;5012462;28;20191;-80
2023/12/17 05:25:05;;;;;;;0.20;0.20;;;8.60;99.90;;;;;;5011635;28;20661;-80
2023/12/17 05:27:30;;;;;;;0.20;0.20;;;8.70;99.90;;;;;;5030156;28;20192;-80
2023/12/17 05:29:56;;;;;;;0.20;0.20;;;8.70;99.90;;;;;;5011985;28;20433;-80
2023/12/17 05:32:22;;;;;;;0.20;0.20;;;8.70;99.90;;;;;;5012308;28;20194;-80
2023/12/17 05:34:47;;;;;;;0.20;0.20;;;8.70;99.90;;;;;;5025859;28;20222;-80
2023/12/17 05:37:13;;;;;;;0.20;0.20;;;8.70;99.90;;;;;;5030052;28;20229;-79
2023/12/17 05:39:38;;;;;;;0.20;0.20;;;8.60;99.90;;;;;;5029868;28;20180;-80
2023/12/17 05:42:04;;;;;;;0.30;0.30;;;8.60;99.90;;;;;;5030244;28;20281;-80
2023/12/17 05:44:29;;;;;;;0.20;0.20;;;8.70;99.90;;;;;;5010907;28;20191;-80
2023/12/17 05:46:55;;;;;;;0.20;0.20;;;8.70;99.90;;;;;;5009595;28;20700;-80
2023/12/17 05:49:20;;;;;;;0.20;0.20;;;8.70;99.90;;;;;;5018551;28;20188;-80
2023/12/17 05:51:48;;;;;;;0.23;0.23;;;8.70;99.90;;;;;;5028874;28;20814;-80
2023/12/17 05:54:13;;;;;;;0.20;0.20;;;8.70;99.90;;;;;;5030622;28;20195;-77
2023/12/17 05:56:43;;;;;;;0.20;0.20;;;8.70;99.90;;;;;;5030263;28;20603;-79
2023/12/17 05:59:09;;;;;;;0.20;0.20;;;8.70;99.90;;;;;;5027951;28;20558;-79
2023/12/17 06:01:36;;;;;;;0.20;0.20;;;8.60;99.90;;;;;;5022991;28;20376;-79
2023/12/17 06:04:02;;;;;;;0.20;0.20;;;8.60;99.90;;;;;;5029150;28;20434;-79
2023/12/17 06:06:27;;;;;;;0.20;0.20;;;8.60;99.90;;;;;;5011650;28;20430;-79
2023/12/17 06:08:53;;;;;;;0.20;0.20;;;8.70;99.90;;;;;;5026258;28;20293;-79
2023/12/17 06:11:19;;;;;;;0.20;0.20;;;8.70;99.90;;;;;;5025523;28;20202;-79
2023/12/17 06:13:45;;;;;;;0.20;0.20;;;8.70;99.90;;;;;;5025829;28;20199;-79
2023/12/17 06:16:12;;;;;;;0.20;0.20;;;8.70;99.90;;;;;;5005852;28;20254;-81
2023/12/17 06:18:38;;;;;;;0.20;0.20;;;8.70;99.90;;;;;;5027652;28;20476;-80
2023/12/17 06:21:05;;;;;;;0.20;0.20;;;8.70;99.90;;;;;;5004535;28;20453;-79
2023/12/17 06:23:31;;;;;;;0.20;0.20;;;8.70;99.90;;;;;;5028838;28;21006;-80
2023/12/17 06:25:57;;;;;;;0.20;0.20;;;8.70;99.90;;;;;;5020438;28;20435;-80
2023/12/17 06:28:26;;;;;;;0.20;0.20;;;8.70;99.90;;;;;;5019172;28;20493;-80
2023/12/17 06:30:51;;;;;;;0.20;0.20;;;8.70;99.90;;;;;;5027659;28;20521;-79
2023/12/17 06:33:17;;;;;;;0.13;0.13;;;8.70;99.90;;;;;;5025148;28;20534;-80
2023/12/17 06:35:44;;;;;;;0.20;0.20;;;8.70;99.90;;;;;;5012256;28;20274;-80
2023/12/17 06:38:10;;;;;;;0.20;0.20;;;8.80;99.90;;;;;;5005129;28;20314;-80
2023/12/17 06:40:35;;;;;;;0.20;0.20;;;8.80;99.90;;;;;;5022373;28;20586;-79
2023/12/17 06:43:01;;;;;;;0.20;0.20;;;8.70;99.90;;;;;;5029555;28;20207;-79
2023/12/17 06:45:26;;;;;;;0.20;0.20;;;8.70;99.90;;;;;;5023237;28;20188;-79
2023/12/17 06:47:52;;;;;;;0.20;0.20;;;8.70;99.90;;;;;;4994421;28;20188;-79
2023/12/17 06:50:17;;;;;;;0.20;0.20;;;8.70;99.90;;;;;;5028829;28;20525;-79
2023/12/17 06:52:43;;;;;;;0.20;0.20;;;8.70;99.90;;;;;;5038023;28;20185;-80
2023/12/17 06:55:09;;;;;;;0.20;0.20;;;8.70;99.90;;;;;;5002109;28;20673;-79
2023/12/17 06:57:34;;;;;;;0.20;0.20;;;8.70;99.90;;;;;;5034585;28;20243;-79
2023/12/17 07:00:00;;;;;;;0.20;0.20;;;8.70;99.90;;;;;;5021549;28;20185;-80
2023/12/17 07:02:25;;;;;;;0.20;0.20;;;8.80;99.90;;;;;;5027802;28;20190;-79
2023/12/17 07:04:51;;;;;;;0.20;0.20;;;8.70;99.90;;;;;;5015977;28;20215;-80
2023/12/17 07:07:16;;;;;;;0.20;0.20;;;8.70;99.90;;;;;;5017999;28;20205;-80
2023/12/17 07:09:42;;;;;;;0.20;0.20;;;8.70;99.90;;;;;;5022877;28;20176;-80
2023/12/17 07:12:08;;;;;;;0.20;0.20;;;8.70;99.90;;;;;;5020244;28;20278;-80
2023/12/17 07:14:34;;;;;;;0.20;0.20;;;8.80;99.90;;;;;;5016093;28;20604;-79
2023/12/17 07:16:59;;;;;;;0.20;0.20;;;8.80;99.90;;;;;;5006271;28;20563;-79
2023/12/17 07:19:25;;;;;;;0.20;0.20;;;8.80;99.90;;;;;;5009240;28;20246;-79
2023/12/17 07:21:51;;;;;;;0.20;0.20;;;8.80;99.90;;;;;;5037391;28;20189;-79
2023/12/17 07:24:16;;;;;;;0.20;0.20;;;8.80;99.90;;;;;;5022257;28;20186;-80
2023/12/17 07:26:42;;;;;;;0.20;0.20;;;8.80;99.90;;;;;;5030732;28;20648;-79
2023/12/17 07:29:07;;;;;;;0.20;0.20;;;8.80;99.90;;;;;;5023470;28;20187;-79
2023/12/17 07:31:33;;;;;;;0.20;0.20;;;8.80;99.90;;;;;;5020907;28;20178;-79
2023/12/17 07:33:59;;;;;;;0.20;0.20;;;8.80;99.90;;;;;;5015760;28;20442;-81
2023/12/17 07:36:25;;;;;;;0.20;0.20;;;8.80;99.90;;;;;;5022078;28;20203;-76
2023/12/17 07:38:50;;;;;;;0.20;0.20;;;8.80;99.90;;;;;;5033206;28;20242;-79
2023/12/17 07:41:16;;;;;;;0.20;0.20;;;8.80;99.90;;;;;;5028269;28;20466;-79
2023/12/17 07:43:42;;;;;;;0.20;0.20;;;8.80;99.90;;;;;;5021636;28;20675;-79
2023/12/17 07:46:08;;;;;;;0.20;0.20;;;8.80;99.90;;;;;;5029061;28;20199;-80
2023/12/17 07:48:33;;;;;;;0.20;0.20;;;8.80;99.90;;;;;;5014153;28;20435;-79
2023/12/17 07:51:01;;;;;;;0.20;0.20;;;8.70;99.90;;;;;;5011161;28;20207;-80
2023/12/17 07:53:26;;;;;;;0.20;0.20;;;8.70;99.90;;;;;;5002632;28;20191;-80
2023/12/17 07:55:57;;;;;;;0.20;0.20;;;8.80;99.90;;;;;;5018875;28;20511;-80
2023/12/17 07:58:25;;;;;;;0.30;0.30;;;8.80;99.90;;;;;;5026539;28;20219;-79
2023/12/17 08:00:52;;;;;;;0.20;0.20;;;8.80;99.90;;;;;;5028788;28;20438;-79
2023/12/17 08:03:17;;;;;;;0.20;0.20;;;8.80;99.90;;;;;;5028361;28;20999;-79
2023/12/17 08:05:43;;;;;;;0.20;0.20;;;8.80;99.90;;;;;;5030747;28;20430;-79
2023/12/17 08:08:08;;;;;;;0.20;0.20;;;8.80;99.90;;;;;;5025903;28;20192;-79
2023/12/17 08:10:34;;;;;;;0.20;0.20;;;8.80;99.90;;;;;;5023781;28;20188;-79
2023/12/17 08:12:59;;;;;;;0.20;0.20;;;8.80;99.90;;;;;;5004071;28;20210;-80
2023/12/17 08:15:25;;;;;;;0.10;0.10;;;8.80;99.90;;;;;;5012010;28;20207;-79
2023/12/17 08:17:50;;;;;;;0.20;0.20;;;8.80;99.90;;;;;;5015503;28;20208;-79
2023/12/17 08:20:17;;;;;;;0.20;0.20;;;8.80;99.90;;;;;;5020070;28;20223;-78
2023/12/17 08:22:43;;;;;;;0.20;0.20;;;8.80;99.90;;;;;;5022976;28;20203;-79
2023/12/17 08:25:08;;;;;;;0.17;0.17;;;8.80;99.90;;;;;;5010394;28;20985;-79
2023/12/17 08:27:34;;;;;;;0.20;0.20;;;8.80;99.90;;;;;;5030160;28;20223;-79
2023/12/17 08:29:59;;;;;;;0.20;0.20;;;8.80;99.90;;;;;;5030936;28;20294;-79
2023/12/17 08:32:31;;;;;;;0.20;0.20;;;8.80;99.90;;;;;;4995787;28;20562;-79
2023/12/17 08:35:00;;;;;;;0.20;0.20;;;8.80;99.90;;;;;;5022443;28;20183;-79
2023/12/17 08:37:26;;;;;;;0.20;0.20;;;8.80;99.90;;;;;;5014745;28;21313;-80
2023/12/17 08:39:55;;;;;;;0.20;0.20;;;8.80;99.90;;;;;;5027918;28;20540;-80
2023/12/17 08:42:21;;;;;;;0.20;0.20;;;8.80;99.90;;;;;;5019612;28;20192;-79
2023/12/17 08:44:47;;;;;;;0.10;0.10;;;8.80;99.90;;;;;;5026470;28;20429;-79
2023/12/17 08:47:13;;;;;;;0.20;0.20;;;8.80;99.90;;;;;;5021963;28;20431;-80
2023/12/17 08:49:38;;;;;;;0.20;0.20;;;8.80;99.90;;;;;;5016882;28;20789;-79
2023/12/17 08:52:04;;;;;;;0.20;0.20;;;8.80;99.90;;;;;;5014393;28;20614;-79
2023/12/17 08:54:30;;;;;;;0.20;0.20;;;8.80;99.90;;;;;;5001008;28;20184;-80
2023/12/17 08:56:56;;;;;;;0.20;0.20;;;8.80;99.90;;;;;;5028761;28;20478;-80
2023/12/17 08:59:21;;;;;;;0.20;0.20;;;8.80;99.90;;;;;;5008451;28;20199;-80
2023/12/17 09:01:47;;;;;;;0.20;0.20;;;8.80;99.90;;;;;;5025075;28;20188;-80
2023/12/17 09:04:13;;;;;;;0.20;0.20;;;8.80;99.90;;;;;;5024806;28;20266;-80
2023/12/17 09:06:43;;;;;;;0.20;0.20;;;8.80;99.90;;;;;;5002236;28;20202;-80
2023/12/17 09:09:09;;;;;;;0.20;0.20;;;8.80;99.90;;;;;;5022468;28;20196;-80
2023/12/17 09:11:35;;;;;;;0.20;0.20;;;8.80;99.90;;;;;;5027086;28;20449;-80
2023/12/17 09:14:01;;;;;;;0.20;0.20;;;8.80;99.90;;;;;;5027282;28;20449;-79
2023/12/17 09:16:26;;;;;;;0.20;0.20;;;8.80;99.90;;;;;;5030189;28;20672;-80
2023/12/17 09:18:52;;;;;;;0.20;0.20;;;8.80;99.90;;;;;;5008710;28;20239;-79
2023/12/17 09:21:17;;;;;;;0.20;0.20;;;8.80;99.90;;;;;;5027129;28;21019;-79
2023/12/17 09:23:43;;;;;;;0.20;0.20;;;8.80;99.90;;;;;;5018761;28;20180;-79
2023/12/17 09:26:09;;;;;;;0.20;0.20;;;8.80;99.90;;;;;;5027146;28;20278;-79
2023/12/17 09:28:35;;;;;;;0.20;0.20;;;8.80;99.90;;;;;;5011354;28;20210;-80
2023/12/17 09:31:01;;;;;;;0.20;0.20;;;8.80;99.90;;;;;;5023041;28;20283;-79
2023/12/17 09:33:27;;;;;;;0.20;0.20;;;8.80;99.90;;;;;;5007798;28;20510;-80
2023/12/17 09:35:53;;;;;;;0.20;0.20;;;8.70;99.90;;;;;;5029792;28;20191;-79
2023/12/17 09:38:18;;;;;;;0.20;0.20;;;8.70;99.90;;;;;;5002667;28;20223;-80
2023/12/17 09:40:47;;;;;;;0.20;0.20;;;8.70;99.90;;;;;;5024927;28;20442;-80
2023/12/17 09:43:13;;;;;;;0.20;0.20;;;8.70;99.90;;;;;;5036364;28;20186;-80
2023/12/17 09:45:41;;;;;;;0.20;0.20;;;8.70;99.90;;;;;;5022298;28;20426;-79
2023/12/17 09:48:07;;;;;;;0.23;0.23;;;8.70;99.90;;;;;;5024881;28;20458;-79
2023/12/17 09:50:33;;;;;;;0.20;0.20;;;8.70;99.90;;;;;;5021478;28;20798;-79
2023/12/17 09:52:58;;;;;;;0.20;0.20;;;8.70;99.90;;;;;;5023857;28;20266;-80
2023/12/17 09:55:24;;;;;;;0.20;0.20;;;8.70;99.90;;;;;;5023308;28;20222;-79
2023/12/17 09:57:50;;;;;;;0.20;0.20;;;8.70;99.90;;;;;;5018007;28;20223;-79
2023/12/17 10:00:16;;;;;;;0.20;0.20;;;8.70;99.90;;;;;;5018301;28;20188;-80
2023/12/17 10:02:42;;;;;;;0.20;0.20;;;8.70;99.90;;;;;;5014492;28;20539;-79
2023/12/17 10:05:08;;;;;;;0.20;0.20;;;8.70;99.90;;;;;;5018517;28;20514;-79
2023/12/17 10:07:34;;;;;;;0.20;0.20;;;8.70;99.90;;;;;;5015844;28;20259;-80
2023/12/17 10:10:00;;;;;;;0.20;0.20;;;8.70;99.90;;;;;;5016600;28;20439;-80
2023/12/17 10:12:27;;;;;;;0.20;0.20;;;8.60;99.90;;;;;;4998366;28;20454;-79
2023/12/17 10:14:52;;;;;;;0.20;0.20;;;8.60;99.90;;;;;;5011170;28;20273;-79
2023/12/17 10:17:19;;;;;;;0.20;0.20;;;8.60;99.90;;;;;;5015002;28;20578;-79
2023/12/17 10:19:52;;;;;;;0.20;0.20;;;8.60;99.90;;;;;;5020961;28;20224;-79
2023/12/17 10:22:19;;;;;;;0.20;0.20;;;8.60;99.90;;;;;;5013719;28;20914;-79
2023/12/17 10:24:45;;;;;;;0.20;0.20;;;8.60;99.90;;;;;;5016611;28;20444;-80
2023/12/17 10:27:19;;;;;;;0.20;0.20;;;8.60;99.90;;;;;;4999842;28;20801;-80
2023/12/17 10:29:53;;;;;;;0.20;0.20;;;8.60;99.90;;;;;;5016950;28;21067;-79
2023/12/17 10:32:23;;;;;;;0.20;0.20;;;8.60;99.90;;;;;;5021901;28;20439;-79
2023/12/17 10:34:53;;;;;;;0.20;0.20;;;8.60;99.90;;;;;;5021581;28;20431;-79
2023/12/17 10:37:20;;;;;;;0.20;0.20;;;8.60;99.90;;;;;;5016422;28;20507;-79
2023/12/17 10:39:50;;;;;;;0.20;0.20;;;8.60;99.90;;;;;;5027976;28;20434;-78
2023/12/17 10:42:17;;;;;;;0.20;0.20;;;8.60;99.90;;;;;;5021091;28;20414;-79
2023/12/17 10:44:46;;;;;;;0.20;0.20;;;8.60;99.90;;;;;;5027865;28;20434;-79
2023/12/17 10:47:16;;;;;;;0.20;0.20;;;8.60;99.90;;;;;;5008153;28;20435;-79
2023/12/17 10:49:43;;;;;;;0.20;0.20;;;8.60;99.90;;;;;;5024041;28;20954;-79
2023/12/17 10:52:10;;;;;;;0.20;0.20;;;8.60;99.90;;;;;;5021315;28;20535;-80
2023/12/17 10:54:35;;;;;;;0.20;0.20;;;8.60;99.90;;;;;;5028099;28;20434;-80
2023/12/17 10:57:04;;;;;;;0.20;0.20;;;8.70;99.90;;;;;;5014252;28;20482;-79
2023/12/17 10:59:33;;;;;;;0.20;0.20;;;8.70;99.90;;;;;;5024899;28;20184;-79
2023/12/17 11:02:00;;;;;;;0.20;0.20;;;8.70;99.90;;;;;;5016233;28;20490;-79
2023/12/17 11:04:26;;;;;;;0.20;0.20;;;8.80;99.90;;;;;;5027072;28;20707;-79
2023/12/17 11:06:52;;;;;;;0.20;0.20;;;8.80;99.90;;;;;;5031399;28;20521;-79
2023/12/17 11:09:18;;;;;;;0.20;0.20;;;8.90;99.90;;;;;;5021783;28;20513;-78
2023/12/17 11:11:47;;;;;;;0.10;0.10;;;8.90;99.90;;;;;;5027440;28;20429;-79
2023/12/17 11:14:13;;;;;;;0.20;0.20;;;8.90;99.90;;;;;;5029222;28;20438;-79
2023/12/17 11:16:39;;;;;;;0.10;0.10;;;8.90;99.90;;;;;;5023527;28;20426;-78
2023/12/17 11:19:05;;;;;;;0.20;0.20;;;8.90;99.90;;;;;;5016060;28;20846;-80
2023/12/17 11:21:32;;;;;;;0.20;0.20;;;8.90;99.90;;;;;;5030456;28;20442;-79
2023/12/17 11:23:58;;;;;;;0.10;0.10;;;8.90;99.90;;;;;;5023493;28;20184;-80
2023/12/17 11:26:24;;;;;;;0.20;0.20;;;9.00;99.90;;;;;;5013444;28;20490;-80
2023/12/17 11:28:49;;;;;;;0.20;0.20;;;8.90;99.90;;;;;;5034447;28;20215;-83
2023/12/17 11:31:16;;;;;;;0.20;0.20;;;8.90;99.90;;;;;;5033996;28;20452;-81
2023/12/17 11:33:42;;;;;;;0.20;0.20;;;8.90;99.90;;;;;;5031750;28;20191;-80
2023/12/17 11:36:10;;;;;;;0.20;0.20;;;9.00;99.90;;;;;;5014995;28;20434;-81
2023/12/17 11:38:36;;;;;;;0.10;0.10;;;9.00;99.90;;;;;;5042061;28;20476;-80
2023/12/17 11:41:03;;;;;;;0.20;0.20;;;9.00;99.90;;;;;;5044938;28;20789;-81
2023/12/17 11:43:29;;;;;;;0.20;0.20;;;9.00;99.90;;;;;;5035761;28;20183;-80
2023/12/17 11:45:56;;;;;;;0.20;0.20;;;9.00;99.90;;;;;;5019899;28;20436;-79
2023/12/17 11:48:21;;;;;;;0.20;0.20;;;9.00;99.90;;;;;;5029068;28;20462;-80
2023/12/17 11:50:52;;;;;;;0.20;0.20;;;9.00;99.90;;;;;;5031346;28;20454;-80
2023/12/17 11:53:22;;;;;;;0.27;0.27;;;9.10;99.90;;;;;;5026274;28;20433;-80
2023/12/17 11:55:52;;;;;;;0.30;0.30;;;9.10;99.90;;;;;;5001231;28;20450;-79
2023/12/17 11:58:21;;;;;;;0.20;0.20;;;9.10;99.90;;;;;;5020761;28;20483;-80
2023/12/17 12:01:09;;;;;;;0.20;0.20;;;9.10;99.90;;;;;;5015724;28;20430;-79
2023/12/17 12:03:36;;;;;;;0.10;0.10;;;9.10;99.90;;;;;;5012350;28;20431;-80
2023/12/17 12:06:11;;;;;;;0.20;0.20;;;9.10;99.90;;;;;;5017227;28;20484;-80
2023/12/17 12:08:41;;;;;;;0.20;0.20;;;9.20;99.90;;;;;;5023967;28;20930;-80
2023/12/17 12:11:07;;;;;;;0.20;0.20;;;9.20;99.90;;;;;;5028802;28;20433;-80
2023/12/17 12:13:38;;;;;;;0.20;0.20;;;9.10;99.90;;;;;;5027202;28;20521;-80
2023/12/17 12:16:05;;;;;;;0.20;0.20;;;9.20;99.90;;;;;;5034469;28;21488;-80
2023/12/17 12:18:30;;;;;;;0.20;0.20;;;9.20;99.90;;;;;;5030917;28;20632;-78
2023/12/17 12:20:56;;;;;;;0.20;0.20;;;9.20;99.90;;;;;;5048941;28;20992;-80
2023/12/17 12:23:22;;;;;;;0.20;0.20;;;9.20;99.90;;;;;;5046841;28;20193;-80
2023/12/17 12:25:47;;;;;;;0.20;0.20;;;9.20;99.90;;;;;;5031454;28;20175;-80
2023/12/17 12:28:20;;;;;;;0.20;0.20;;;9.20;99.90;;;;;;5028801;28;20433;-80
2023/12/17 12:30:47;;;;;;;0.20;0.20;;;9.20;99.90;;;;;;5029674;28;20186;-81
2023/12/17 12:33:19;;;;;;;0.20;0.20;;;9.20;99.90;;;;;;5048296;28;20428;-80
2023/12/17 12:35:48;;;;;;;0.20;0.20;;;9.20;99.90;;;;;;5010116;28;20482;-81
2023/12/17 12:38:22;;;;;;;0.20;0.20;;;9.20;99.90;;;;;;5018985;28;20482;-81
2023/12/17 12:40:48;;;;;;;0.20;0.20;;;9.20;99.90;;;;;;5031283;28;21222;-81
2023/12/17 12:43:16;;;;;;;0.10;0.10;;;9.20;99.90;;;;;;5044732;28;20460;-81
2023/12/17 12:45:42;;;;;;;0.20;0.20;;;9.20;99.90;;;;;;5027551;28;20983;-82
2023/12/17 12:48:25;;;;;;;0.10;0.10;;;9.20;99.90;;;;;;5033964;28;20961;-82
2023/12/17 12:50:51;;;;;;;0.20;0.20;;;9.20;99.90;;;;;;5025812;28;21133;-82
2023/12/17 12:53:19;;;;;;;0.20;0.20;;;9.20;99.90;;;;;;5020216;28;20426;-81